Time;durP1;ratioP1;P1;durP2;ratioP2;P2;SDS_P1;SDS_P2;PMS_P1;PMS_P2;Temp;Humidity;BMP_temperature;BMP_pressure;BME280_temperature;BME280_humidity;BME280_pressure;Samples;Min_cycle;Max_cycle;Signal;HPM_P1;HPM_P2
2021/03/29 00:00:31;;;;;;;12.32;2.80;;;10.40;99.90;;;;;;5026803;28;20038;-71
2021/03/29 00:02:58;;;;;;;3.33;1.65;;;10.40;99.90;;;;;;5026656;28;20025;-72
2021/03/29 00:05:26;;;;;;;2.50;1.60;;;10.40;99.90;;;;;;5026784;28;20030;-71
2021/03/29 00:07:56;;;;;;;5.70;2.08;;;10.40;99.90;;;;;;5026595;28;20065;-72
2021/03/29 00:10:23;;;;;;;4.78;1.50;;;10.40;99.90;;;;;;5026759;28;20109;-71
2021/03/29 00:12:51;;;;;;;10.00;2.00;;;10.40;99.90;;;;;;5026642;28;20022;-71
2021/03/29 00:15:23;;;;;;;4.95;2.00;;;10.40;99.90;;;;;;5040905;28;20028;-71
2021/03/29 00:17:48;;;;;;;3.63;1.50;;;10.40;99.90;;;;;;5046182;28;20124;-70
2021/03/29 00:20:19;;;;;;;2.80;1.83;;;10.40;99.90;;;;;;5046246;28;20028;-72
2021/03/29 00:22:44;;;;;;;8.27;2.08;;;10.40;99.90;;;;;;5046388;28;20029;-70
2021/03/29 00:25:14;;;;;;;4.47;1.83;;;10.40;99.90;;;;;;5046248;28;20109;-70
2021/03/29 00:27:40;;;;;;;6.07;2.10;;;10.50;99.90;;;;;;5046250;28;20038;-71
2021/03/29 00:30:10;;;;;;;4.80;1.98;;;10.40;99.90;;;;;;5046371;28;20026;-72
2021/03/29 00:32:36;;;;;;;2.08;1.40;;;10.40;99.90;;;;;;5046246;28;20026;-72
2021/03/29 00:35:03;;;;;;;6.05;2.30;;;10.40;99.90;;;;;;5046163;28;20038;-71
2021/03/29 00:37:29;;;;;;;4.35;2.00;;;10.50;99.90;;;;;;5046024;28;20029;-70
2021/03/29 00:39:56;;;;;;;2.78;1.38;;;10.50;99.90;;;;;;5045836;28;20045;-72
2021/03/29 00:42:22;;;;;;;3.92;1.92;;;10.50;99.90;;;;;;5044515;28;20099;-70
2021/03/29 00:44:47;;;;;;;5.32;2.10;;;10.50;99.90;;;;;;5046042;28;20036;-70
2021/03/29 00:47:14;;;;;;;2.58;1.33;;;10.50;99.90;;;;;;5045787;28;20026;-73
2021/03/29 00:49:40;;;;;;;5.60;2.33;;;10.50;99.90;;;;;;5045845;28;20021;-70
2021/03/29 00:52:08;;;;;;;5.50;2.33;;;10.50;99.90;;;;;;5045924;28;20026;-73
2021/03/29 00:54:35;;;;;;;2.33;1.40;;;10.50;99.90;;;;;;5045910;28;20029;-73
2021/03/29 00:57:02;;;;;;;13.40;1.80;;;10.50;99.90;;;;;;5045526;28;20032;-69
2021/03/29 00:59:29;;;;;;;3.67;2.30;;;10.40;99.90;;;;;;5045463;28;20643;-72
2021/03/29 01:01:56;;;;;;;5.05;2.05;;;10.40;99.90;;;;;;5045423;28;20049;-70
2021/03/29 01:04:22;;;;;;;7.07;2.75;;;10.40;99.90;;;;;;5032076;28;20033;-71
2021/03/29 01:06:51;;;;;;;3.00;1.88;;;10.40;99.90;;;;;;5025668;28;20037;-72
2021/03/29 01:09:20;;;;;;;5.60;1.90;;;10.40;99.90;;;;;;5025468;28;20387;-72
2021/03/29 01:11:56;;;;;;;9.13;1.85;;;10.40;99.90;;;;;;5025558;28;20037;-70
2021/03/29 01:14:28;;;;;;;3.88;1.90;;;10.30;99.90;;;;;;5040381;28;20026;-70
2021/03/29 01:17:03;;;;;;;4.43;1.92;;;10.40;99.90;;;;;;5023968;28;20054;-71
2021/03/29 01:19:59;;;;;;;3.13;1.67;;;10.40;99.90;;;;;;5025424;28;20117;-73
2021/03/29 01:22:28;;;;;;;3.78;1.75;;;10.40;99.90;;;;;;5025301;28;20048;-72
2021/03/29 01:25:15;;;;;;;3.95;1.70;;;10.40;99.90;;;;;;5025162;28;20109;-72
2021/03/29 01:28:02;;;;;;;6.72;2.35;;;10.40;99.90;;;;;;5025316;28;20053;-73
2021/03/29 01:30:31;;;;;;;18.60;2.70;;;10.40;99.90;;;;;;5023583;28;20042;-73
2021/03/29 01:32:59;;;;;;;11.82;2.60;;;10.40;99.90;;;;;;5040533;28;20406;-71
2021/03/29 01:35:31;;;;;;;2.63;1.33;;;10.30;99.90;;;;;;5025101;28;20382;-71
2021/03/29 01:37:57;;;;;;;4.65;2.35;;;10.30;99.90;;;;;;5023746;28;20030;-73
2021/03/29 01:40:24;;;;;;;4.82;1.90;;;10.30;99.90;;;;;;5024981;28;20029;-72
2021/03/29 01:42:50;;;;;;;7.70;2.00;;;10.30;99.90;;;;;;5023852;28;20073;-70
2021/03/29 01:45:18;;;;;;;4.80;2.15;;;10.30;99.90;;;;;;5025182;28;20490;-72
2021/03/29 01:47:44;;;;;;;6.55;2.83;;;10.30;99.90;;;;;;5025011;28;20033;-73
2021/03/29 01:50:17;;;;;;;12.48;2.25;;;10.30;99.90;;;;;;5025197;28;20038;-72
2021/03/29 01:52:43;;;;;;;6.55;2.03;;;10.30;99.90;;;;;;5025213;28;20105;-75
2021/03/29 01:55:10;;;;;;;4.03;2.25;;;10.30;99.90;;;;;;5023690;28;20030;-72
2021/03/29 01:57:36;;;;;;;10.32;2.80;;;10.30;99.90;;;;;;5024972;28;20026;-70
2021/03/29 02:00:24;;;;;;;5.15;2.22;;;10.30;99.90;;;;;;5024854;28;20033;-73
2021/03/29 02:02:50;;;;;;;4.28;2.10;;;10.30;99.90;;;;;;5040108;28;20046;-72
2021/03/29 02:05:18;;;;;;;8.80;2.33;;;10.20;99.90;;;;;;5024819;28;20029;-71
2021/03/29 02:07:45;;;;;;;4.78;2.15;;;10.30;99.90;;;;;;5024783;28;20467;-72
2021/03/29 02:10:23;;;;;;;4.15;2.20;;;10.20;99.90;;;;;;5024945;28;20030;-71
2021/03/29 02:12:50;;;;;;;4.22;2.45;;;10.20;99.90;;;;;;5024855;28;20041;-73
2021/03/29 02:15:23;;;;;;;7.18;3.20;;;10.30;99.90;;;;;;5024661;28;20026;-72
2021/03/29 02:17:51;;;;;;;7.90;3.20;;;10.20;99.90;;;;;;5024451;28;20038;-72
2021/03/29 02:20:21;;;;;;;7.93;3.08;;;10.10;99.90;;;;;;5023307;28;20056;-72
2021/03/29 02:22:51;;;;;;;14.45;2.83;;;10.10;99.90;;;;;;5024630;28;20049;-72
2021/03/29 02:25:18;;;;;;;7.82;2.42;;;10.10;99.90;;;;;;5024492;28;20029;-72
2021/03/29 02:27:47;;;;;;;9.45;2.95;;;10.10;99.90;;;;;;5024764;28;20092;-73
2021/03/29 02:30:16;;;;;;;5.75;2.10;;;10.10;99.90;;;;;;5024855;28;20031;-73
2021/03/29 02:32:44;;;;;;;6.05;2.75;;;10.00;99.90;;;;;;5024623;28;20026;-72
2021/03/29 02:35:12;;;;;;;5.93;2.83;;;10.00;99.90;;;;;;5024605;28;20056;-71
2021/03/29 02:37:49;;;;;;;5.38;2.53;;;10.00;99.90;;;;;;5025351;28;20082;-72
2021/03/29 02:40:17;;;;;;;7.30;2.60;;;10.00;99.90;;;;;;5028075;28;20040;-73
2021/03/29 02:42:45;;;;;;;2.55;1.73;;;10.00;99.90;;;;;;5028410;28;20026;-71
2021/03/29 02:45:12;;;;;;;4.20;2.03;;;10.10;99.90;;;;;;5028455;28;20098;-73
2021/03/29 02:47:47;;;;;;;8.88;2.53;;;10.10;99.90;;;;;;5028421;28;20029;-71
2021/03/29 02:50:21;;;;;;;5.65;2.45;;;10.10;99.90;;;;;;5043543;28;20053;-72
2021/03/29 02:52:49;;;;;;;5.28;2.75;;;10.10;99.90;;;;;;5026876;28;20037;-71
2021/03/29 02:55:16;;;;;;;2.85;1.88;;;10.10;99.90;;;;;;5026649;28;20036;-73
2021/03/29 02:57:45;;;;;;;11.38;2.85;;;10.00;99.90;;;;;;5028277;28;20427;-73
2021/03/29 03:00:18;;;;;;;6.13;2.47;;;10.00;99.90;;;;;;5043106;28;20159;-74
2021/03/29 03:02:44;;;;;;;3.65;1.83;;;10.10;99.90;;;;;;5027964;28;20042;-72
2021/03/29 03:05:12;;;;;;;8.60;2.92;;;10.00;99.90;;;;;;5028142;28;20026;-71
2021/03/29 03:07:39;;;;;;;7.85;2.28;;;10.00;99.90;;;;;;5027601;28;20109;-73
2021/03/29 03:10:11;;;;;;;5.32;2.17;;;9.90;99.90;;;;;;5027931;28;20041;-75
2021/03/29 03:12:41;;;;;;;5.32;1.92;;;10.00;99.90;;;;;;5026474;28;20054;-72
2021/03/29 03:15:10;;;;;;;8.60;2.72;;;10.00;99.90;;;;;;5028016;28;20092;-71
2021/03/29 03:17:36;;;;;;;10.63;2.75;;;10.00;99.90;;;;;;5027687;28;20554;-72
2021/03/29 03:20:06;;;;;;;18.73;2.58;;;10.00;99.90;;;;;;5027685;28;20098;-72
2021/03/29 03:22:32;;;;;;;3.60;2.10;;;10.00;99.90;;;;;;5027809;28;20112;-71
2021/03/29 03:24:57;;;;;;;3.03;1.85;;;10.00;99.90;;;;;;5042691;28;20093;-70
2021/03/29 03:27:23;;;;;;;2.78;1.77;;;10.00;99.90;;;;;;5027530;28;20022;-72
2021/03/29 03:29:49;;;;;;;4.43;2.30;;;10.00;99.90;;;;;;5026128;28;20029;-71
2021/03/29 03:32:16;;;;;;;3.30;1.45;;;10.00;99.90;;;;;;5027356;28;20028;-73
2021/03/29 03:34:43;;;;;;;14.25;2.08;;;10.10;99.90;;;;;;5027467;28;20034;-71
2021/03/29 03:37:15;;;;;;;7.97;2.65;;;10.10;99.90;;;;;;5027388;28;20026;-73
2021/03/29 03:39:43;;;;;;;4.82;1.70;;;10.10;99.90;;;;;;5027452;28;20036;-73
2021/03/29 03:42:10;;;;;;;17.60;2.60;;;10.10;99.90;;;;;;5027278;28;20102;-75
2021/03/29 03:44:36;;;;;;;4.32;2.25;;;10.10;99.90;;;;;;5027552;28;20022;-73
2021/03/29 03:47:04;;;;;;;6.00;1.90;;;10.10;99.90;;;;;;5026003;28;20061;-72
2021/03/29 03:49:32;;;;;;;9.90;1.77;;;10.20;99.90;;;;;;5026975;28;20041;-71
2021/03/29 03:51:58;;;;;;;5.40;1.88;;;10.20;99.90;;;;;;5027429;28;20080;-72
2021/03/29 03:54:25;;;;;;;5.72;1.90;;;10.20;99.90;;;;;;5041946;28;20042;-73
2021/03/29 03:56:51;;;;;;;5.38;1.52;;;10.20;99.90;;;;;;5027129;28;20018;-70
2021/03/29 03:59:17;;;;;;;3.63;1.27;;;10.20;99.90;;;;;;5026775;28;20022;-70
2021/03/29 04:01:59;;;;;;;5.13;1.92;;;10.20;99.90;;;;;;5026857;28;20049;-71
2021/03/29 04:04:25;;;;;;;3.13;1.67;;;10.30;99.90;;;;;;5026648;28;20168;-72
2021/03/29 04:06:51;;;;;;;3.42;1.60;;;10.30;99.90;;;;;;5026685;28;20390;-70
2021/03/29 04:09:17;;;;;;;6.50;1.92;;;10.30;99.90;;;;;;5026575;28;20045;-72
2021/03/29 04:11:49;;;;;;;5.57;2.03;;;10.40;99.90;;;;;;5026780;28;20022;-72
2021/03/29 04:14:14;;;;;;;5.53;1.98;;;10.30;99.90;;;;;;5026571;28;20028;-72
2021/03/29 04:16:40;;;;;;;6.75;1.90;;;10.40;99.90;;;;;;5026434;28;20097;-69
2021/03/29 04:19:06;;;;;;;9.95;2.05;;;10.30;99.90;;;;;;5042205;28;20398;-73
2021/03/29 04:21:33;;;;;;;4.70;2.25;;;10.40;99.90;;;;;;5026535;28;20101;-74
2021/03/29 04:23:59;;;;;;;2.17;1.02;;;10.50;99.90;;;;;;5026392;28;20061;-69
2021/03/29 04:26:24;;;;;;;9.40;1.45;;;10.50;99.90;;;;;;5026418;28;20038;-72
2021/03/29 04:28:50;;;;;;;2.88;1.45;;;10.50;99.90;;;;;;5026185;28;20033;-72
2021/03/29 04:31:15;;;;;;;3.38;1.73;;;10.60;99.90;;;;;;5025115;28;20045;-72
2021/03/29 04:33:41;;;;;;;4.50;1.48;;;10.60;99.90;;;;;;5026635;28;20034;-72
2021/03/29 04:36:07;;;;;;;6.13;1.25;;;10.60;99.90;;;;;;5026470;28;20080;-71
2021/03/29 04:38:33;;;;;;;5.03;1.35;;;10.60;99.90;;;;;;5026144;28;20578;-73
2021/03/29 04:40:58;;;;;;;5.05;1.40;;;10.60;99.90;;;;;;5041678;28;20034;-71
2021/03/29 04:43:24;;;;;;;14.95;1.63;;;10.60;99.90;;;;;;5026056;28;20021;-74
2021/03/29 04:45:51;;;;;;;7.60;1.80;;;10.70;99.90;;;;;;5032559;28;20393;-73
2021/03/29 04:48:17;;;;;;;3.92;1.90;;;10.70;99.90;;;;;;5041674;28;20036;-73
2021/03/29 04:50:43;;;;;;;8.77;1.60;;;10.70;99.90;;;;;;5040915;28;20108;-72
2021/03/29 04:53:08;;;;;;;2.17;1.42;;;10.70;99.90;;;;;;5026514;28;20030;-74
2021/03/29 04:55:34;;;;;;;4.97;1.73;;;10.80;99.90;;;;;;5046068;28;20116;-72
2021/03/29 04:57:59;;;;;;;9.57;1.85;;;10.80;99.90;;;;;;5033133;28;20049;-73
2021/03/29 05:00:25;;;;;;;8.15;1.65;;;10.80;99.90;;;;;;5025158;28;20121;-74
2021/03/29 05:02:51;;;;;;;1.80;1.23;;;10.80;99.90;;;;;;5037204;28;20026;-74
2021/03/29 05:05:16;;;;;;;4.80;1.77;;;10.80;99.90;;;;;;5045567;28;20030;-74
2021/03/29 05:07:44;;;;;;;3.28;1.40;;;10.80;99.90;;;;;;5044176;28;20450;-74
2021/03/29 05:10:12;;;;;;;3.05;1.55;;;10.80;99.90;;;;;;5045401;28;20030;-75
2021/03/29 05:12:38;;;;;;;2.22;1.13;;;10.80;99.90;;;;;;5029971;28;20472;-75
2021/03/29 05:15:06;;;;;;;1.60;1.00;;;10.90;99.90;;;;;;5025582;28;20030;-73
2021/03/29 05:17:32;;;;;;;4.68;1.70;;;10.80;99.90;;;;;;5025354;28;20049;-75
2021/03/29 05:19:58;;;;;;;5.85;1.73;;;10.80;99.90;;;;;;5025255;28;20030;-75
2021/03/29 05:22:24;;;;;;;6.07;1.33;;;10.80;99.90;;;;;;5041617;28;20051;-74
2021/03/29 05:24:49;;;;;;;4.18;1.95;;;10.80;99.90;;;;;;5042830;28;20029;-74
2021/03/29 05:27:15;;;;;;;8.52;1.88;;;10.90;99.90;;;;;;5039480;28;20542;-74
2021/03/29 05:29:45;;;;;;;3.72;1.52;;;10.80;99.90;;;;;;5025057;28;20030;-71
2021/03/29 05:32:13;;;;;;;3.38;1.48;;;10.80;99.90;;;;;;5024678;28;20061;-73
2021/03/29 05:34:38;;;;;;;4.65;1.55;;;10.80;99.90;;;;;;5044556;28;20026;-71
2021/03/29 05:37:04;;;;;;;11.13;1.25;;;10.90;99.90;;;;;;5044639;28;20075;-75
2021/03/29 05:39:30;;;;;;;8.40;1.58;;;10.90;99.90;;;;;;5043817;28;20034;-73
2021/03/29 05:41:56;;;;;;;5.55;1.42;;;11.00;99.90;;;;;;5044339;28;20057;-73
2021/03/29 05:44:22;;;;;;;3.10;1.65;;;11.00;99.90;;;;;;5044192;28;20080;-73
2021/03/29 05:46:48;;;;;;;2.30;1.27;;;11.00;99.90;;;;;;5044303;28;20061;-73
2021/03/29 05:49:14;;;;;;;3.35;1.55;;;11.00;99.90;;;;;;5039727;28;20030;-73
2021/03/29 05:51:40;;;;;;;5.93;1.17;;;11.10;99.90;;;;;;5024619;28;20414;-73
2021/03/29 05:54:07;;;;;;;2.65;1.67;;;11.10;99.90;;;;;;5043575;28;20057;-74
2021/03/29 05:56:40;;;;;;;3.63;1.77;;;11.20;99.90;;;;;;5027617;28;20037;-73
2021/03/29 06:01:54;;;;;;;10.13;1.40;;;11.20;99.90;;;;;;5035590;28;20038;-74
2021/03/29 06:04:41;;;;;;;3.40;1.55;;;11.20;99.90;;;;;;5033569;28;20026;-72
2021/03/29 06:07:10;;;;;;;1.98;1.00;;;11.30;99.90;;;;;;5032312;28;20046;-74
2021/03/29 06:09:36;;;;;;;7.07;1.80;;;11.30;99.90;;;;;;5031127;28;20522;-74
2021/03/29 06:12:02;;;;;;;9.70;2.10;;;11.30;99.90;;;;;;5025711;28;20037;-74
2021/03/29 06:14:29;;;;;;;5.32;2.17;;;11.30;99.90;;;;;;5062301;28;20037;-73
2021/03/29 06:16:56;;;;;;;9.23;1.85;;;11.40;99.90;;;;;;5048125;28;20105;-77
2021/03/29 06:19:37;;;;;;;4.72;1.48;;;11.40;99.90;;;;;;5048349;28;20018;-77
2021/03/29 06:22:40;;;;;;;6.05;1.33;;;11.40;99.90;;;;;;5048355;28;20041;-74
2021/03/29 06:25:12;;;;;;;4.15;1.30;;;11.40;99.90;;;;;;5048895;28;20549;-75
2021/03/29 06:27:39;;;;;;;4.85;1.33;;;11.40;99.90;;;;;;5048414;28;20084;-73
2021/03/29 06:30:17;;;;;;;2.00;1.20;;;11.40;99.90;;;;;;5048257;28;20025;-75
2021/03/29 06:32:52;;;;;;;5.55;2.20;;;11.40;99.90;;;;;;5048176;28;20025;-76
2021/03/29 06:35:25;;;;;;;4.55;2.38;;;11.50;99.90;;;;;;5047857;28;20030;-73
2021/03/29 06:37:50;;;;;;;5.72;1.85;;;11.50;99.90;;;;;;5047950;28;20117;-76
2021/03/29 06:40:17;;;;;;;2.45;1.50;;;11.60;99.90;;;;;;5045643;28;20418;-76
2021/03/29 06:42:43;;;;;;;3.75;1.92;;;11.50;99.90;;;;;;5043272;28;20030;-77
2021/03/29 06:45:15;;;;;;;1.88;1.17;;;11.50;99.90;;;;;;5036125;28;20044;-75
2021/03/29 06:47:44;;;;;;;2.47;1.25;;;11.50;99.90;;;;;;5046260;28;20037;-74
2021/03/29 06:50:26;;;;;;;7.93;2.00;;;11.60;99.90;;;;;;5042739;28;20033;-75
2021/03/29 06:52:53;;;;;;;7.97;1.75;;;11.50;99.90;;;;;;5026487;28;20034;-74
2021/03/29 06:55:27;;;;;;;6.13;2.10;;;11.60;99.90;;;;;;5027844;28;20056;-71
2021/03/29 06:58:08;;;;;;;3.33;1.08;;;11.50;99.90;;;;;;5026391;28;20025;-73
2021/03/29 07:00:36;;;;;;;5.72;1.70;;;11.60;99.90;;;;;;5026573;28;20038;-74
2021/03/29 07:03:07;;;;;;;10.77;1.73;;;11.60;99.90;;;;;;5027715;28;20026;-73
2021/03/29 07:05:33;;;;;;;2.22;1.63;;;11.60;99.90;;;;;;5027948;28;20030;-73
2021/03/29 07:08:07;;;;;;;3.83;1.25;;;11.60;99.90;;;;;;5027390;28;20479;-74
2021/03/29 07:10:33;;;;;;;2.75;1.42;;;11.60;99.90;;;;;;5027439;28;20026;-75
2021/03/29 07:13:01;;;;;;;2.55;1.50;;;11.80;99.90;;;;;;5042789;28;20510;-74
2021/03/29 07:15:26;;;;;;;4.93;1.77;;;11.70;99.90;;;;;;5025878;28;20057;-74
2021/03/29 07:17:52;;;;;;;9.65;2.70;;;11.70;99.90;;;;;;5042444;28;20053;-73
2021/03/29 07:20:24;;;;;;;8.93;1.60;;;11.90;99.90;;;;;;5042663;28;20037;-73
2021/03/29 07:22:50;;;;;;;5.90;1.83;;;11.70;99.90;;;;;;5046875;28;20057;-74
2021/03/29 07:25:17;;;;;;;7.57;2.10;;;11.80;99.90;;;;;;5035904;28;20022;-74
2021/03/29 07:27:49;;;;;;;6.68;1.73;;;11.90;99.90;;;;;;5027052;28;20025;-74
2021/03/29 07:30:17;;;;;;;7.03;2.30;;;11.90;99.90;;;;;;5026867;28;20129;-75
2021/03/29 07:32:54;;;;;;;2.33;1.63;;;12.00;99.90;;;;;;5029294;28;20022;-74
2021/03/29 07:35:21;;;;;;;2.70;1.63;;;12.10;99.90;;;;;;5024809;28;20022;-74
2021/03/29 07:37:55;;;;;;;10.02;1.27;;;12.10;99.90;;;;;;5030317;28;20386;-77
2021/03/29 07:40:22;;;;;;;;;;;12.20;99.90;;;;;;5046472;28;20049;-73
2021/03/29 07:42:53;;;;;;;4.68;2.25;;;12.20;99.90;;;;;;5044258;28;19913;-74
2021/03/29 07:45:20;;;;;;;7.25;2.13;;;12.20;99.90;;;;;;5046671;28;20060;-75
2021/03/29 07:47:47;;;;;;;4.45;2.00;;;12.30;99.90;;;;;;5045777;28;20029;-75
2021/03/29 07:50:25;;;;;;;10.77;2.22;;;12.30;99.90;;;;;;5044943;28;20037;-73
2021/03/29 07:52:54;;;;;;;4.45;1.95;;;12.30;99.90;;;;;;5036347;28;20037;-74
2021/03/29 07:55:35;;;;;;;5.05;1.38;;;12.30;99.90;;;;;;5041605;28;20030;-75
2021/03/29 07:58:05;;;;;;;6.25;2.00;;;12.30;99.90;;;;;;5046184;28;20026;-74
2021/03/29 08:00:31;;;;;;;10.32;2.03;;;12.30;99.90;;;;;;5045862;28;20076;-74
2021/03/29 08:03:12;;;;;;;9.70;2.03;;;12.40;99.90;;;;;;5048141;28;20041;-73
2021/03/29 08:05:43;;;;;;;4.82;2.30;;;12.30;99.90;;;;;;5026423;28;20056;-75
2021/03/29 08:10:56;;;;;;;5.57;1.50;;;12.50;99.90;;;;;;5035291;28;20136;-73
2021/03/29 08:13:52;;;;;;;0.98;0.73;;;12.60;99.90;;;;;;5045935;28;20034;-73
2021/03/29 08:16:25;;;;;;;7.68;2.33;;;12.90;99.90;;;;;;5040757;28;20446;-75
2021/03/29 08:21:51;;;;;;;6.53;2.63;;;13.10;99.90;;;;;;5026223;28;20041;-74
2021/03/29 08:24:22;;;;;;;4.93;1.90;;;13.30;99.90;;;;;;5025815;28;20030;-76
2021/03/29 08:26:50;;;;;;;5.07;1.80;;;13.60;99.90;;;;;;5026077;28;20115;-73
2021/03/29 08:29:29;;;;;;;6.22;2.33;;;13.80;99.90;;;;;;5026089;28;20025;-73
2021/03/29 08:32:15;;;;;;;7.13;2.00;;;13.80;99.90;;;;;;5025827;28;20144;-74
2021/03/29 08:34:57;;;;;;;4.45;2.03;;;13.80;99.90;;;;;;5024342;28;20040;-77
2021/03/29 08:37:39;;;;;;;14.77;2.42;;;13.80;99.90;;;;;;5032045;28;20025;-73
2021/03/29 08:40:15;;;;;;;6.70;1.90;;;13.80;99.90;;;;;;5033971;28;20506;-74
2021/03/29 08:42:43;;;;;;;2.63;1.20;;;13.80;99.90;;;;;;5045505;28;20076;-75
2021/03/29 08:45:13;;;;;;;5.40;1.67;;;13.70;99.90;;;;;;5035855;28;20049;-75
2021/03/29 08:47:43;;;;;;;4.15;2.00;;;13.90;99.90;;;;;;5025752;28;20041;-73
2021/03/29 08:50:16;;;;;;;6.07;2.17;;;13.90;99.90;;;;;;5035991;28;20030;-73
2021/03/29 08:52:46;;;;;;;10.18;2.75;;;13.90;99.90;;;;;;5026947;28;20056;-74
2021/03/29 08:55:23;;;;;;;6.47;2.05;;;13.90;99.90;;;;;;5035482;28;20026;-75
2021/03/29 08:57:51;;;;;;;4.88;2.00;;;13.90;99.90;;;;;;5032793;28;20061;-73
2021/03/29 09:00:20;;;;;;;4.95;2.50;;;14.00;99.90;;;;;;5039874;28;20032;-74
2021/03/29 09:02:47;;;;;;;7.32;2.45;;;14.00;99.90;;;;;;5040446;28;20042;-73
2021/03/29 09:05:18;;;;;;;8.10;2.15;;;14.00;99.90;;;;;;5033783;28;20485;-75
2021/03/29 09:07:47;;;;;;;3.53;1.95;;;14.10;99.90;;;;;;5039383;28;20094;-76
2021/03/29 09:10:33;;;;;;;3.97;2.05;;;14.20;99.90;;;;;;5034544;28;20061;-73
2021/03/29 09:13:13;;;;;;;3.25;1.90;;;14.30;99.90;;;;;;5044865;28;20052;-75
2021/03/29 09:15:43;;;;;;;5.28;2.35;;;14.60;99.90;;;;;;5039468;28;20033;-75
2021/03/29 09:18:12;;;;;;;4.88;1.48;;;14.80;99.90;;;;;;5045013;28;20053;-73
2021/03/29 09:20:45;;;;;;;3.20;1.67;;;15.00;99.90;;;;;;5044841;28;20021;-75
2021/03/29 09:23:13;;;;;;;5.63;2.60;;;15.20;99.90;;;;;;5025050;28;20053;-75
2021/03/29 09:25:45;;;;;;;8.82;2.28;;;15.50;99.90;;;;;;5025099;28;20026;-74
2021/03/29 09:28:18;;;;;;;6.55;2.08;;;15.70;99.90;;;;;;5033316;28;20481;-73
2021/03/29 09:30:47;;;;;;;4.38;1.77;;;15.90;99.90;;;;;;5044171;28;20021;-74
2021/03/29 09:33:15;;;;;;;6.72;2.40;;;16.00;99.90;;;;;;5044680;28;20028;-75
2021/03/29 09:35:42;;;;;;;3.55;2.05;;;16.10;99.90;;;;;;5032814;28;20061;-73
2021/03/29 09:38:09;;;;;;;7.97;2.50;;;16.20;99.90;;;;;;5025207;28;20057;-77
2021/03/29 09:40:36;;;;;;;8.35;1.90;;;16.30;99.90;;;;;;5024503;28;20032;-77
2021/03/29 09:43:03;;;;;;;5.80;1.83;;;16.30;99.90;;;;;;5023499;28;20033;-73
2021/03/29 09:45:31;;;;;;;7.35;2.10;;;16.40;99.90;;;;;;5024655;28;20044;-74
2021/03/29 09:48:11;;;;;;;5.15;1.75;;;16.50;99.90;;;;;;5027907;28;20488;-74
2021/03/29 09:50:41;;;;;;;4.03;1.90;;;16.50;99.90;;;;;;5044701;28;20040;-74
2021/03/29 09:53:09;;;;;;;3.22;1.95;;;16.60;99.90;;;;;;5044717;28;20025;-73
2021/03/29 09:55:48;;;;;;;9.40;2.13;;;16.70;99.90;;;;;;5043015;28;20135;-73
2021/03/29 09:58:31;;;;;;;7.55;2.05;;;16.70;99.90;;;;;;5044315;28;20055;-76
2021/03/29 10:01:00;;;;;;;4.75;2.03;;;16.70;99.90;;;;;;5043058;28;20048;-77
2021/03/29 10:03:26;;;;;;;6.28;2.30;;;17.00;99.90;;;;;;5040026;28;20033;-74
2021/03/29 10:05:53;;;;;;;7.40;2.28;;;17.20;99.90;;;;;;5036667;28;20030;-76
2021/03/29 10:08:33;;;;;;;5.13;2.30;;;17.10;99.90;;;;;;5028932;28;20081;-75
2021/03/29 10:11:02;;;;;;;5.53;2.22;;;17.30;99.90;;;;;;5044456;28;20026;-76
2021/03/29 10:13:36;;;;;;;3.35;1.92;;;17.50;99.90;;;;;;5027654;28;20056;-76
2021/03/29 10:16:24;;;;;;;3.85;1.95;;;17.60;99.90;;;;;;5044136;28;20041;-73
2021/03/29 10:19:13;;;;;;;7.72;2.53;;;17.80;99.90;;;;;;5027382;28;20069;-74
2021/03/29 10:22:19;;;;;;;3.80;2.15;;;17.90;99.90;;;;;;5024721;28;20041;-72
2021/03/29 10:25:13;;;;;;;1.80;1.33;;;17.90;99.90;;;;;;5024369;28;20079;-72
2021/03/29 10:27:46;;;;;;;9.93;1.45;;;18.00;99.90;;;;;;5024824;28;20550;-75
2021/03/29 10:30:25;;;;;;;3.03;1.85;;;18.20;99.90;;;;;;5024567;28;20037;-73
2021/03/29 10:32:56;;;;;;;3.08;1.63;;;18.10;99.90;;;;;;5022951;28;20076;-74
2021/03/29 10:35:24;;;;;;;12.75;2.72;;;18.20;99.90;;;;;;5024381;28;20030;-74
2021/03/29 10:37:51;;;;;;;4.25;1.92;;;18.30;99.90;;;;;;5024077;28;20033;-74
2021/03/29 10:40:18;;;;;;;2.58;1.60;;;18.40;99.90;;;;;;5022442;28;20054;-72
2021/03/29 10:42:44;;;;;;;2.45;1.65;;;18.50;99.90;;;;;;5023973;28;20041;-75
2021/03/29 10:45:14;;;;;;;2.65;1.70;;;18.70;99.90;;;;;;5034786;28;20032;-76
2021/03/29 10:47:43;;;;;;;4.55;1.83;;;18.90;99.90;;;;;;5043730;28;20033;-75
2021/03/29 10:50:13;;;;;;;5.93;2.08;;;19.10;99.90;;;;;;5044136;28;20028;-75
2021/03/29 10:52:41;;;;;;;3.33;1.52;;;19.20;99.90;;;;;;5043829;28;20029;-74
2021/03/29 10:55:07;;;;;;;9.43;2.50;;;19.30;99.90;;;;;;5042529;28;20052;-75
2021/03/29 10:57:34;;;;;;;4.53;2.05;;;19.30;99.90;;;;;;5043826;28;20033;-75
2021/03/29 11:00:00;;;;;;;4.95;1.98;;;19.30;99.90;;;;;;5046665;28;20029;-74
2021/03/29 11:02:26;;;;;;;3.25;1.95;;;19.30;99.90;;;;;;5047006;28;20040;-74
2021/03/29 11:04:51;;;;;;;3.90;1.52;;;19.50;99.90;;;;;;5047599;28;20017;-74
2021/03/29 11:07:17;;;;;;;2.80;1.80;;;19.50;99.90;;;;;;5036813;28;20060;-76
2021/03/29 11:09:42;;;;;;;4.30;1.77;;;19.80;99.90;;;;;;5027759;28;20026;-73
2021/03/29 11:12:10;;;;;;;3.90;2.15;;;20.00;99.90;;;;;;5027674;28;20036;-75
2021/03/29 11:14:35;;;;;;;3.63;1.88;;;20.00;99.90;;;;;;5027574;28;20073;-73
2021/03/29 11:17:02;;;;;;;3.30;2.13;;;20.10;99.90;;;;;;5026960;28;20053;-73
2021/03/29 11:19:28;;;;;;;5.25;1.90;;;20.30;99.90;;;;;;5041732;28;20053;-73
2021/03/29 11:21:54;;;;;;;4.13;1.67;;;20.50;99.90;;;;;;5026576;28;20034;-74
2021/03/29 11:24:21;;;;;;;5.32;2.08;;;20.70;99.90;;;;;;5040540;28;20554;-74
2021/03/29 11:26:47;;;;;;;8.02;2.20;;;20.70;99.90;;;;;;5026569;28;20022;-74
2021/03/29 11:29:12;;;;;;;3.38;1.70;;;20.70;99.90;;;;;;5041972;28;20082;-74
2021/03/29 11:31:41;;;;;;;2.15;1.73;;;20.90;99.90;;;;;;5042514;28;20026;-74
2021/03/29 11:34:08;;;;;;;3.70;2.20;;;21.00;99.90;;;;;;5027336;28;20032;-73
2021/03/29 11:36:34;;;;;;;5.63;1.77;;;21.00;99.90;;;;;;5027595;28;20037;-73
2021/03/29 11:39:00;;;;;;;2.25;1.42;;;21.10;99.90;;;;;;5026009;28;20033;-76
2021/03/29 11:41:26;;;;;;;4.13;1.60;;;21.00;99.90;;;;;;5025564;28;20110;-73
2021/03/29 11:43:52;;;;;;;2.53;1.38;;;21.10;99.90;;;;;;5026299;28;20026;-74
2021/03/29 11:46:17;;;;;;;4.90;2.35;;;21.00;99.90;;;;;;5026814;28;20032;-73
2021/03/29 11:48:43;;;;;;;9.55;2.05;;;20.90;99.90;;;;;;5026115;28;20049;-74
2021/03/29 11:51:09;;;;;;;6.32;2.00;;;20.90;99.90;;;;;;5025727;28;20026;-72
2021/03/29 11:53:36;;;;;;;6.20;2.03;;;21.00;99.90;;;;;;5042307;28;20034;-74
2021/03/29 11:56:03;;;;;;;3.40;1.52;;;21.10;99.90;;;;;;5042092;28;20026;-73
2021/03/29 11:58:29;;;;;;;3.95;2.08;;;21.30;99.90;;;;;;5026530;28;20034;-76
2021/03/29 12:01:04;;;;;;;2.60;1.70;;;21.40;99.90;;;;;;5026923;28;20048;-75
2021/03/29 12:03:42;;;;;;;3.38;1.55;;;21.60;99.90;;;;;;5026406;28;20461;-74
2021/03/29 12:06:16;;;;;;;6.30;2.28;;;21.40;99.90;;;;;;5027216;28;20026;-76
2021/03/29 12:08:48;;;;;;;4.63;2.42;;;21.40;99.90;;;;;;5026958;28;20478;-75
2021/03/29 12:13:59;;;;;;;8.98;2.00;;;21.60;99.90;;;;;;5026605;28;20037;-76
2021/03/29 12:16:27;;;;;;;2.17;1.52;;;21.70;99.90;;;;;;5026473;28;20034;-74
2021/03/29 12:18:57;;;;;;;5.15;2.17;;;21.80;99.90;;;;;;5026379;28;20042;-74
2021/03/29 12:21:30;;;;;;;9.23;1.88;;;21.80;99.90;;;;;;5026257;28;20041;-73
2021/03/29 12:24:02;;;;;;;2.80;1.48;;;22.00;99.90;;;;;;5024784;28;20037;-73
2021/03/29 12:26:29;;;;;;;2.70;1.60;;;22.10;99.90;;;;;;5025083;28;20030;-73
2021/03/29 12:28:58;;;;;;;2.20;1.38;;;22.10;99.90;;;;;;5024899;28;20038;-73
2021/03/29 12:31:24;;;;;;;8.82;2.40;;;22.20;99.90;;;;;;5036042;28;20052;-74
2021/03/29 12:33:51;;;;;;;2.38;1.60;;;22.20;99.90;;;;;;5045325;28;20037;-73
2021/03/29 12:36:18;;;;;;;4.68;1.77;;;22.40;99.90;;;;;;5045530;28;20104;-74
2021/03/29 12:38:59;;;;;;;6.15;1.95;;;22.40;99.90;;;;;;5044154;28;20056;-74
2021/03/29 12:41:25;;;;;;;3.13;1.58;;;22.40;99.90;;;;;;5044564;28;20064;-75
2021/03/29 12:44:00;;;;;;;12.32;2.10;;;22.60;99.90;;;;;;5045836;28;20021;-73
2021/03/29 12:46:26;;;;;;;3.78;1.95;;;22.80;99.90;;;;;;5044633;28;20025;-75
2021/03/29 12:48:52;;;;;;;3.90;1.80;;;22.80;99.90;;;;;;5043952;28;20067;-73
2021/03/29 12:51:18;;;;;;;2.58;1.70;;;22.90;99.90;;;;;;5042958;28;20022;-77
2021/03/29 12:53:44;;;;;;;4.90;2.00;;;22.90;99.90;;;;;;5045723;28;20085;-78
2021/03/29 12:56:10;;;;;;;3.22;2.00;;;23.10;99.90;;;;;;5044420;28;20168;-76
2021/03/29 12:58:37;;;;;;;1.98;1.55;;;23.00;99.90;;;;;;5045282;28;20485;-74
2021/03/29 13:01:08;;;;;;;4.80;2.10;;;22.80;99.90;;;;;;5044047;28;20096;-77
2021/03/29 13:03:41;;;;;;;2.20;1.50;;;23.10;99.90;;;;;;5045184;28;20074;-74
2021/03/29 13:06:39;;;;;;;2.25;1.60;;;23.20;99.90;;;;;;5045513;28;20039;-72
2021/03/29 13:09:08;;;;;;;3.05;1.67;;;23.30;99.90;;;;;;5044912;28;20037;-74